Biarritz, France

3:36 PM CEST on October 21, 2014 (GMT +0200)
Bayonne-Anglet | Change Station
CLOSE
Current Station
Airport
Location: Biarritz,
Elevation: 233 ft
Nearby Weather Stations

Elev 233 ft 43.47 °N, 1.53 °W | Updated 6 minutes ago

Scattered Clouds
Scattered Clouds
70 °F
Feels Like 70 °F
N
16
Wind Variable Wind from West

Today
High -- | Low -- °F
--% Chance of Precip.
Yesterday
High -- | Low -- °F
Precip. -- in
8:27 AM 7:13 PM
Waning Crescent, 5% visible
Pressure 30.27 in
Visibility 6.2 miles
Clouds Few 1200 ft
Scattered Clouds 3000 ft
Dew Point 63 °F
Humidity 78%
Rainfall 0.00 in
Snow Depth Not available.
UV 3 out of 12
Pollen Not available.
Air Quality Not available.
Flu Activity Not available.
METAR LFBZ 211330Z 28014KT 9999 FEW012 SCT030 21/17 Q1025 TEMPO 28015G25KT

More Conditions Fewer Conditions

Pressure 30.27 in
Visibility 6.2 miles
Clouds Few 1200 ft
Scattered Clouds 3000 ft
Dew Point 63 °F
Humidity 78%
Rainfall 0.00 in
Snow Depth Not available.
UV 3 out of 12
Pollen Not available.
Air Quality Not available.
Flu Activity Not available.
METAR LFBZ 211330Z 28014KT 9999 FEW012 SCT030 21/17 Q1025 TEMPO 28015G25KT

More Conditions Fewer Conditions

10-Day Weather Forecast

Almanac

Astronomy

Oct. 21, 2014 Rise Set
Actual Time 8:27 AM CEST 7:13 PM CEST
Civil Twilight 7:58 AM CEST 7:42 PM CEST
Nautical Twilight 7:24 AM CEST 8:15 PM CEST
Astronomical Twilight 6:51 AM CEST 8:48 PM CEST
Moon 5:53 AM CEST 6:03 PM CEST
Length of Visible Light 11h 44m
Length of Day
10h 46m
Tomorrow will be 2m 48s shorter.
Waning Crescent, 5% of the Moon is Illuminated
Today
Waning Crescent
Oct 23
New
Oct 30
First Quarter
Nov 6
Full
Nov 14
Last Quarter

Yesterday's Extremes

Country Highs Country Lows

Community

WunderPhotos

Upload Photos

1,763,662 photos uploaded!

Nearby

Snow Depth

Not available.

Earthquake Activity

City Distance Mag. Time & Date
No recent earthquake activity has been reported nearby.
Minimum magnitude displayed is 2.5.

Coastal Water Temperatures

Place Temperature
No Stations Reporting

Nearby Weather Stations